Time;durP1;ratioP1;P1;durP2;ratioP2;P2;SDS_P1;SDS_P2;PMS_P1;PMS_P2;Temp;Humidity;BMP_temperature;BMP_pressure;BME280_temperature;BME280_humidity;BME280_pressure;Samples;Min_cycle;Max_cycle;Signal;HPM_P1;HPM_P2
2021/11/22 00:01:00;;;;;;;13.10;9.00;;;;;;;;;;2068235;28;20170;-60
2021/11/22 00:02:00;;;;;;;12.27;9.70;;;;;;;;;;2062557;28;20214;-61
2021/11/22 00:03:01;;;;;;;13.60;10.27;;;;;;;;;;2067504;28;20205;-60
2021/11/22 00:04:01;;;;;;;13.77;9.57;;;;;;;;;;2063545;28;20569;-61
2021/11/22 00:05:02;;;;;;;10.07;9.00;;;;;;;;;;2067782;28;20614;-61
2021/11/22 00:06:02;;;;;;;9.53;8.53;;;;;;;;;;2064010;28;20194;-63
2021/11/22 00:07:03;;;;;;;12.37;8.83;;;;;;;;;;2067510;28;20177;-61
2021/11/22 00:08:03;;;;;;;10.57;8.90;;;;;;;;;;2061446;28;20178;-59
2021/11/22 00:09:04;;;;;;;11.73;8.60;;;;;;;;;;2068701;28;20193;-59
2021/11/22 00:10:05;;;;;;;10.03;8.60;;;;;;;;;;2067967;28;20182;-61
2021/11/22 00:11:05;;;;;;;10.10;9.00;;;;;;;;;;2068040;28;20487;-63
2021/11/22 00:12:05;;;;;;;11.87;9.67;;;;;;;;;;2068812;28;20276;-61
2021/11/22 00:13:06;;;;;;;11.10;8.87;;;;;;;;;;2067795;28;20213;-62
2021/11/22 00:14:06;;;;;;;10.43;8.20;;;;;;;;;;2068841;28;20204;-59
2021/11/22 00:15:08;;;;;;;9.23;8.33;;;;;;;;;;2068621;28;20198;-60
2021/11/22 00:16:08;;;;;;;10.00;8.73;;;;;;;;;;2068742;28;20186;-62
2021/11/22 00:17:09;;;;;;;10.10;9.10;;;;;;;;;;2068412;28;20176;-62
2021/11/22 00:18:09;;;;;;;10.17;8.93;;;;;;;;;;2058852;28;20182;-60
2021/11/22 00:19:10;;;;;;;10.63;9.53;;;;;;;;;;2058522;28;20185;-62
2021/11/22 00:20:15;;;;;;;10.93;9.60;;;;;;;;;;2064943;28;20165;-62
2021/11/22 00:21:15;;;;;;;13.50;9.33;;;;;;;;;;2066121;28;20228;-60
2021/11/22 00:22:15;;;;;;;10.10;9.10;;;;;;;;;;2065281;28;20588;-60
2021/11/22 00:23:15;;;;;;;11.73;9.27;;;;;;;;;;2065366;28;20189;-60
2021/11/22 00:24:16;;;;;;;10.77;9.67;;;;;;;;;;2065599;28;20185;-64
2021/11/22 00:25:17;;;;;;;12.70;9.97;;;;;;;;;;2064907;28;20213;-59
2021/11/22 00:26:17;;;;;;;11.27;9.63;;;;;;;;;;2059235;28;20174;-62
2021/11/22 00:27:18;;;;;;;11.20;9.60;;;;;;;;;;2065379;28;20173;-60
2021/11/22 00:28:18;;;;;;;15.27;11.27;;;;;;;;;;2072963;28;20876;-62
2021/11/22 00:29:41;;;;;;;12.73;9.17;;;;;;;;;;2063266;28;20643;-61
2021/11/22 00:31:07;;;;;;;13.10;9.93;;;;;;;;;;2064635;28;20270;-63
2021/11/22 00:32:14;;;;;;;10.00;9.00;;;;;;;;;;2058144;28;20178;-61
2021/11/22 00:33:33;;;;;;;10.73;9.63;;;;;;;;;;2060630;28;20177;-61
2021/11/22 00:34:55;;;;;;;11.13;9.90;;;;;;;;;;2060400;28;20182;-60
2021/11/22 00:36:08;;;;;;;12.83;10.40;;;;;;;;;;2053804;28;20171;-62
2021/11/22 00:37:16;;;;;;;11.33;10.23;;;;;;;;;;2057681;28;20186;-61
2021/11/22 00:38:16;;;;;;;11.63;10.47;;;;;;;;;;2066396;28;20155;-62
2021/11/22 00:39:18;;;;;;;14.93;9.93;;;;;;;;;;2066417;28;20185;-60
2021/11/22 00:40:19;;;;;;;11.37;10.23;;;;;;;;;;2069373;28;20176;-62
2021/11/22 00:41:19;;;;;;;13.50;11.17;;;;;;;;;;2068307;28;20182;-63
2021/11/22 00:42:19;;;;;;;12.53;10.03;;;;;;;;;;2067593;28;20182;-64
2021/11/22 00:43:20;;;;;;;12.37;10.50;;;;;;;;;;2068974;28;20208;-61
2021/11/22 00:44:20;;;;;;;10.40;9.40;;;;;;;;;;2069574;28;20277;-61
2021/11/22 00:45:21;;;;;;;11.20;10.07;;;;;;;;;;2066723;28;20189;-60
2021/11/22 00:46:21;;;;;;;11.10;10.00;;;;;;;;;;2067728;28;20193;-64
2021/11/22 00:47:22;;;;;;;11.53;10.43;;;;;;;;;;2067964;28;20264;-60
2021/11/22 00:48:23;;;;;;;11.33;10.00;;;;;;;;;;2062857;28;20186;-62
2021/11/22 00:49:23;;;;;;;11.33;10.13;;;;;;;;;;2068606;28;20174;-59
2021/11/22 00:50:24;;;;;;;10.53;9.47;;;;;;;;;;2068933;28;20190;-64
2021/11/22 00:51:24;;;;;;;9.90;9.03;;;;;;;;;;2067857;28;20176;-59
2021/11/22 00:52:24;;;;;;;9.77;8.97;;;;;;;;;;2060389;28;20190;-59
2021/11/22 00:53:25;;;;;;;10.43;9.53;;;;;;;;;;2065652;28;20209;-57
2021/11/22 00:54:25;;;;;;;11.93;10.50;;;;;;;;;;2065671;28;20626;-61
2021/11/22 00:55:25;;;;;;;11.33;9.87;;;;;;;;;;2064471;28;20176;-59
2021/11/22 00:56:28;;;;;;;11.93;10.43;;;;;;;;;;2060284;28;20178;-62
2021/11/22 00:57:28;;;;;;;11.23;10.13;;;;;;;;;;2065058;28;20182;-62
2021/11/22 00:58:28;;;;;;;10.80;9.70;;;;;;;;;;2065698;28;20186;-61
2021/11/22 00:59:29;;;;;;;10.77;9.67;;;;;;;;;;2063743;28;20711;-61
2021/11/22 01:00:29;;;;;;;10.80;8.93;;;;;;;;;;2060583;28;20212;-60
2021/11/22 01:01:29;;;;;;;10.73;9.60;;;;;;;;;;2063096;28;20205;-59
2021/11/22 01:02:30;;;;;;;10.97;9.87;;;;;;;;;;2057947;28;20219;-61
2021/11/22 01:03:30;;;;;;;10.80;9.23;;;;;;;;;;2060366;28;20201;-62
2021/11/22 01:04:30;;;;;;;10.37;9.30;;;;;;;;;;2064871;28;20641;-62
2021/11/22 01:05:31;;;;;;;10.87;9.87;;;;;;;;;;2064884;28;20174;-59
2021/11/22 01:06:32;;;;;;;11.00;9.90;;;;;;;;;;2065380;28;20169;-59
2021/11/22 01:07:33;;;;;;;10.20;9.30;;;;;;;;;;2064513;28;20751;-61
2021/11/22 01:08:33;;;;;;;10.03;9.13;;;;;;;;;;2065880;28;20220;-61
2021/11/22 01:09:34;;;;;;;9.13;8.37;;;;;;;;;;2065457;28;20515;-61
2021/11/22 01:10:35;;;;;;;9.17;8.47;;;;;;;;;;2065114;28;20256;-62
2021/11/22 01:11:36;;;;;;;9.43;8.63;;;;;;;;;;2065429;28;20177;-62
2021/11/22 01:12:36;;;;;;;8.90;8.00;;;;;;;;;;2065723;28;20209;-60
2021/11/22 01:13:36;;;;;;;8.63;7.83;;;;;;;;;;2065757;28;20274;-59
2021/11/22 01:14:37;;;;;;;8.63;7.93;;;;;;;;;;2065675;28;20182;-62
2021/11/22 01:15:37;;;;;;;9.30;8.40;;;;;;;;;;2066063;28;20174;-63
2021/11/22 01:16:38;;;;;;;8.53;7.70;;;;;;;;;;2066331;28;20257;-62
2021/11/22 01:17:39;;;;;;;8.03;7.33;;;;;;;;;;2066072;28;20189;-59
2021/11/22 01:18:40;;;;;;;7.93;7.23;;;;;;;;;;2065552;28;20186;-59
2021/11/22 01:19:40;;;;;;;7.27;6.57;;;;;;;;;;2065921;28;20557;-57
2021/11/22 01:20:41;;;;;;;7.63;6.93;;;;;;;;;;2065448;28;20595;-61
2021/11/22 01:21:42;;;;;;;7.07;6.47;;;;;;;;;;2057347;28;20244;-63
2021/11/22 01:22:42;;;;;;;7.47;6.77;;;;;;;;;;2065311;28;20244;-61
2021/11/22 01:23:42;;;;;;;7.77;6.90;;;;;;;;;;2066069;28;20161;-62
2021/11/22 01:24:43;;;;;;;6.97;6.37;;;;;;;;;;2065607;28;20173;-61
2021/11/22 01:25:43;;;;;;;7.50;6.70;;;;;;;;;;2065969;28;20220;-59
2021/11/22 01:26:44;;;;;;;6.93;6.33;;;;;;;;;;2065413;28;20201;-65
2021/11/22 01:27:44;;;;;;;6.63;6.10;;;;;;;;;;2057258;28;20178;-56
2021/11/22 01:28:45;;;;;;;7.20;6.53;;;;;;;;;;2065557;28;20273;-62
2021/11/22 01:29:46;;;;;;;6.33;5.83;;;;;;;;;;2065770;28;20219;-61
2021/11/22 01:30:46;;;;;;;6.87;6.27;;;;;;;;;;2066055;28;20180;-63
2021/11/22 01:31:46;;;;;;;7.53;6.90;;;;;;;;;;2066200;28;20261;-62
2021/11/22 01:32:47;;;;;;;8.70;6.80;;;;;;;;;;2065819;28;20193;-62
2021/11/22 01:33:47;;;;;;;12.10;7.33;;;;;;;;;;2066033;28;20260;-62
2021/11/22 01:34:48;;;;;;;7.27;6.67;;;;;;;;;;2064527;28;20260;-61
2021/11/22 01:35:48;;;;;;;7.10;6.50;;;;;;;;;;2064995;28;20209;-62
2021/11/22 01:36:48;;;;;;;8.10;6.73;;;;;;;;;;2064725;28;20193;-62
2021/11/22 01:37:49;;;;;;;7.10;6.33;;;;;;;;;;2065086;28;20189;-59
2021/11/22 01:38:50;;;;;;;7.17;6.57;;;;;;;;;;2064542;28;20182;-65
2021/11/22 01:39:50;;;;;;;7.53;6.50;;;;;;;;;;2064792;28;20174;-63
2021/11/22 01:40:50;;;;;;;7.97;7.17;;;;;;;;;;2060887;28;20170;-65
2021/11/22 01:41:51;;;;;;;7.47;6.70;;;;;;;;;;2063634;28;20205;-62
2021/11/22 01:42:52;;;;;;;8.00;6.87;;;;;;;;;;2059869;28;20190;-64
2021/11/22 01:43:52;;;;;;;7.53;6.93;;;;;;;;;;2065067;28;20174;-61
2021/11/22 01:44:52;;;;;;;7.73;6.97;;;;;;;;;;2065584;28;20553;-59
2021/11/22 01:45:53;;;;;;;8.17;7.37;;;;;;;;;;2059216;28;20751;-61
2021/11/22 01:46:55;;;;;;;7.93;7.20;;;;;;;;;;2064071;28;20181;-63
2021/11/22 01:47:57;;;;;;;8.43;7.63;;;;;;;;;;2063004;28;20197;-63
2021/11/22 01:48:59;;;;;;;7.57;6.97;;;;;;;;;;2065028;28;20169;-62
2021/11/22 01:50:00;;;;;;;7.87;6.73;;;;;;;;;;2064934;28;20174;-62
2021/11/22 01:51:00;;;;;;;9.43;8.50;;;;;;;;;;2058098;28;20786;-61
2021/11/22 01:52:01;;;;;;;8.80;7.77;;;;;;;;;;2063741;28;20177;-63
2021/11/22 01:53:01;;;;;;;9.07;8.17;;;;;;;;;;2065273;28;20189;-61
2021/11/22 01:54:02;;;;;;;9.30;8.43;;;;;;;;;;2064681;28;20203;-64
2021/11/22 01:55:02;;;;;;;11.23;8.27;;;;;;;;;;2064665;28;20697;-63
2021/11/22 01:56:03;;;;;;;9.67;8.57;;;;;;;;;;2064155;28;20272;-59
2021/11/22 01:57:04;;;;;;;10.93;9.73;;;;;;;;;;2064571;28;20174;-62
2021/11/22 01:58:04;;;;;;;11.83;9.73;;;;;;;;;;2064392;28;20622;-61
2021/11/22 01:59:05;;;;;;;11.70;10.40;;;;;;;;;;2064704;28;20185;-60
2021/11/22 02:00:07;;;;;;;11.80;10.60;;;;;;;;;;2065029;28;20177;-59
2021/11/22 02:01:13;;;;;;;11.73;10.53;;;;;;;;;;2064322;28;20185;-64
2021/11/22 02:02:13;;;;;;;11.43;9.73;;;;;;;;;;2063381;28;20564;-62
2021/11/22 02:03:15;;;;;;;11.67;10.57;;;;;;;;;;2065663;28;20201;-64
2021/11/22 02:04:15;;;;;;;12.60;11.30;;;;;;;;;;2059726;28;20186;-63
2021/11/22 02:05:16;;;;;;;13.70;12.30;;;;;;;;;;2064392;28;20260;-64
2021/11/22 02:06:16;;;;;;;12.80;11.60;;;;;;;;;;2064773;28;20590;-64
2021/11/22 02:07:17;;;;;;;13.60;12.10;;;;;;;;;;2065452;28;20165;-63
2021/11/22 02:08:18;;;;;;;12.50;11.20;;;;;;;;;;2063651;28;20186;-64
2021/11/22 02:09:18;;;;;;;13.10;11.73;;;;;;;;;;2064075;28;20637;-64
2021/11/22 02:10:19;;;;;;;13.13;11.73;;;;;;;;;;2064134;28;20181;-64
2021/11/22 02:11:19;;;;;;;13.23;11.33;;;;;;;;;;2064989;28;20185;-64
2021/11/22 02:12:20;;;;;;;14.07;11.87;;;;;;;;;;2064722;28;20213;-62
2021/11/22 02:13:20;;;;;;;11.87;10.73;;;;;;;;;;2065544;28;20172;-60
2021/11/22 02:14:20;;;;;;;12.37;11.07;;;;;;;;;;2063455;28;20205;-65
2021/11/22 02:15:21;;;;;;;11.63;10.43;;;;;;;;;;2065795;28;20192;-66
2021/11/22 02:16:21;;;;;;;11.43;10.33;;;;;;;;;;2065135;28;20185;-65
2021/11/22 02:17:22;;;;;;;16.27;10.50;;;;;;;;;;2065833;28;20173;-64
2021/11/22 02:18:22;;;;;;;13.17;10.60;;;;;;;;;;2060119;28;20208;-63
2021/11/22 02:19:23;;;;;;;12.40;10.93;;;;;;;;;;2065001;28;20188;-63
2021/11/22 02:20:25;;;;;;;11.63;10.30;;;;;;;;;;2065297;28;20174;-64
2021/11/22 02:21:25;;;;;;;13.93;10.30;;;;;;;;;;2065652;28;20268;-63
2021/11/22 02:22:26;;;;;;;11.70;10.50;;;;;;;;;;2059671;28;20631;-63
2021/11/22 02:23:26;;;;;;;16.83;10.33;;;;;;;;;;2064359;28;20264;-63
2021/11/22 02:24:26;;;;;;;10.97;9.90;;;;;;;;;;2058769;28;20690;-63
2021/11/22 02:25:27;;;;;;;12.07;10.73;;;;;;;;;;2064439;28;20205;-64
2021/11/22 02:26:30;;;;;;;14.73;10.57;;;;;;;;;;2065246;28;20641;-63
2021/11/22 02:27:31;;;;;;;12.20;10.77;;;;;;;;;;2065127;28;20173;-63
2021/11/22 02:28:31;;;;;;;14.27;10.40;;;;;;;;;;2065078;28;20169;-62
2021/11/22 02:29:31;;;;;;;13.47;10.20;;;;;;;;;;2065395;28;20196;-63
2021/11/22 02:30:33;;;;;;;11.80;9.77;;;;;;;;;;2065482;28;20178;-62
2021/11/22 02:31:34;;;;;;;13.23;10.50;;;;;;;;;;2065361;28;20560;-63
2021/11/22 02:32:38;;;;;;;11.17;9.53;;;;;;;;;;2065368;28;20289;-63
2021/11/22 02:33:39;;;;;;;10.07;9.20;;;;;;;;;;2064671;28;20671;-62
2021/11/22 02:34:39;;;;;;;11.67;9.43;;;;;;;;;;2064052;28;20189;-63
2021/11/22 02:35:41;;;;;;;11.17;9.80;;;;;;;;;;2065027;28;20247;-61
2021/11/22 02:36:42;;;;;;;13.07;9.43;;;;;;;;;;2061210;28;20216;-63
2021/11/22 02:37:42;;;;;;;10.57;9.47;;;;;;;;;;2065366;28;20192;-64
2021/11/22 02:38:44;;;;;;;10.17;9.17;;;;;;;;;;2065046;28;20221;-63
2021/11/22 02:39:44;;;;;;;10.97;9.70;;;;;;;;;;2057331;28;20178;-63
2021/11/22 02:40:44;;;;;;;10.70;9.50;;;;;;;;;;2057718;28;20201;-63
2021/11/22 02:41:45;;;;;;;12.17;8.93;;;;;;;;;;2064959;28;20194;-63
2021/11/22 02:42:46;;;;;;;10.23;9.23;;;;;;;;;;2065042;28;20605;-63
2021/11/22 02:43:46;;;;;;;10.60;9.07;;;;;;;;;;2065191;28;20170;-63
2021/11/22 02:44:46;;;;;;;12.50;9.33;;;;;;;;;;2065395;28;20705;-63
2021/11/22 02:45:47;;;;;;;10.77;9.50;;;;;;;;;;2064495;28;20249;-64
2021/11/22 02:46:47;;;;;;;10.00;9.10;;;;;;;;;;2062888;28;20201;-64
2021/11/22 02:47:48;;;;;;;10.90;9.90;;;;;;;;;;2064186;28;20932;-62
2021/11/22 02:48:49;;;;;;;10.40;9.40;;;;;;;;;;2063400;28;20177;-63
2021/11/22 02:49:49;;;;;;;9.17;8.33;;;;;;;;;;2062985;28;20546;-64
2021/11/22 02:50:50;;;;;;;10.60;9.60;;;;;;;;;;2062244;28;20260;-63
2021/11/22 02:51:51;;;;;;;9.73;8.80;;;;;;;;;;2063076;28;20178;-64
2021/11/22 02:52:52;;;;;;;9.87;8.87;;;;;;;;;;2063823;28;20309;-64
2021/11/22 02:54:02;;;;;;;12.33;9.10;;;;;;;;;;2064062;28;20230;-63
2021/11/22 02:55:04;;;;;;;10.47;9.47;;;;;;;;;;2064761;28;20184;-64
2021/11/22 02:56:06;;;;;;;9.77;8.87;;;;;;;;;;2061085;28;20236;-60
2021/11/22 02:57:07;;;;;;;11.77;9.87;;;;;;;;;;2063830;28;20233;-62
2021/11/22 02:58:08;;;;;;;9.20;7.90;;;;;;;;;;2063200;28;20177;-64
2021/11/22 02:59:08;;;;;;;10.03;9.00;;;;;;;;;;2064950;28;20185;-63
2021/11/22 03:00:11;;;;;;;9.87;8.63;;;;;;;;;;2057692;28;20320;-64
2021/11/22 03:01:11;;;;;;;10.17;9.10;;;;;;;;;;2064693;28;20174;-64
2021/11/22 03:02:13;;;;;;;10.37;8.93;;;;;;;;;;2057711;28;20174;-59
2021/11/22 03:03:14;;;;;;;9.77;8.87;;;;;;;;;;2063781;28;20182;-63
2021/11/22 03:04:14;;;;;;;9.90;8.90;;;;;;;;;;2063657;28;20189;-62
2021/11/22 03:05:14;;;;;;;9.60;8.17;;;;;;;;;;2063925;28;20193;-62
2021/11/22 03:06:16;;;;;;;9.73;8.93;;;;;;;;;;2064309;28;20233;-64
2021/11/22 03:07:17;;;;;;;9.60;8.17;;;;;;;;;;2066363;28;20184;-62
2021/11/22 03:08:17;;;;;;;9.10;8.30;;;;;;;;;;2064821;28;20197;-60
2021/11/22 03:09:17;;;;;;;8.83;7.93;;;;;;;;;;2065589;28;20658;-60
2021/11/22 03:10:18;;;;;;;9.77;8.90;;;;;;;;;;2064695;28;20653;-60
2021/11/22 03:11:19;;;;;;;9.60;8.70;;;;;;;;;;2065840;28;20177;-59
2021/11/22 03:12:19;;;;;;;10.53;9.40;;;;;;;;;;2065875;28;20185;-61
2021/11/22 03:13:20;;;;;;;10.63;9.20;;;;;;;;;;2066176;28;20249;-61
2021/11/22 03:14:20;;;;;;;9.93;8.93;;;;;;;;;;2067012;28;20214;-61
2021/11/22 03:15:21;;;;;;;9.53;8.63;;;;;;;;;;2061911;28;20638;-61
2021/11/22 03:16:22;;;;;;;10.13;9.23;;;;;;;;;;2066161;28;20728;-60
2021/11/22 03:17:22;;;;;;;11.33;9.50;;;;;;;;;;2066469;28;20680;-61
2021/11/22 03:18:24;;;;;;;11.87;9.10;;;;;;;;;;2066040;28;20262;-62
2021/11/22 03:19:25;;;;;;;10.93;9.10;;;;;;;;;;2066564;28;20185;-62
2021/11/22 03:20:25;;;;;;;11.30;9.57;;;;;;;;;;2065898;28;20209;-59
2021/11/22 03:21:25;;;;;;;9.70;8.80;;;;;;;;;;2061289;28;20183;-59
2021/11/22 03:22:26;;;;;;;10.53;9.43;;;;;;;;;;2058026;28;20174;-60
2021/11/22 03:23:27;;;;;;;10.47;9.33;;;;;;;;;;2065756;28;20284;-62
2021/11/22 03:24:28;;;;;;;11.23;8.40;;;;;;;;;;2066691;28;20174;-59
2021/11/22 03:25:31;;;;;;;10.67;9.60;;;;;;;;;;2065350;28;20563;-62
2021/11/22 03:26:31;;;;;;;10.07;9.13;;;;;;;;;;2065636;28;20178;-63
2021/11/22 03:27:32;;;;;;;10.57;9.53;;;;;;;;;;2066828;28;20170;-62
2021/11/22 03:28:33;;;;;;;12.23;9.47;;;;;;;;;;2066231;28;20170;-61
2021/11/22 03:29:33;;;;;;;9.53;8.63;;;;;;;;;;2065712;28;20245;-63
2021/11/22 03:30:34;;;;;;;10.77;9.73;;;;;;;;;;2066001;28;20645;-61
2021/11/22 03:31:36;;;;;;;12.30;9.90;;;;;;;;;;2065471;28;20912;-64
2021/11/22 03:32:36;;;;;;;11.07;9.30;;;;;;;;;;2066110;28;20236;-63
2021/11/22 03:33:37;;;;;;;10.23;9.13;;;;;;;;;;2065600;28;20177;-62
2021/11/22 03:34:37;;;;;;;11.70;9.70;;;;;;;;;;2066097;28;20727;-61
2021/11/22 03:35:40;;;;;;;10.37;9.37;;;;;;;;;;2065480;28;20213;-62
2021/11/22 03:36:41;;;;;;;12.67;9.50;;;;;;;;;;2063363;28;20182;-62
2021/11/22 03:37:42;;;;;;;12.83;9.37;;;;;;;;;;2063740;28;20166;-63
2021/11/22 03:38:42;;;;;;;10.50;9.33;;;;;;;;;;2063222;28;20190;-63
2021/11/22 03:39:47;;;;;;;11.90;9.40;;;;;;;;;;2063132;28;20236;-61
2021/11/22 03:40:51;;;;;;;9.00;8.10;;;;;;;;;;2065353;28;20187;-63
2021/11/22 03:41:54;;;;;;;9.30;8.40;;;;;;;;;;2061329;28;20214;-62
2021/11/22 03:44:10;;;;;;;11.87;8.33;;;;;;;;;;2065434;28;20201;-61
2021/11/22 03:45:11;;;;;;;14.43;8.83;;;;;;;;;;2066036;28;20549;-60
2021/11/22 03:46:12;;;;;;;9.47;8.50;;;;;;;;;;2065340;28;20174;-61
2021/11/22 03:47:12;;;;;;;9.37;8.27;;;;;;;;;;2057334;28;20166;-63
2021/11/22 03:48:13;;;;;;;9.30;8.47;;;;;;;;;;2063147;28;20217;-61
2021/11/22 03:49:14;;;;;;;8.93;8.10;;;;;;;;;;2065728;28;20166;-62
2021/11/22 03:50:14;;;;;;;10.40;8.40;;;;;;;;;;2065718;28;20361;-63
2021/11/22 03:51:14;;;;;;;8.30;7.60;;;;;;;;;;2065687;28;20193;-63
2021/11/22 03:52:15;;;;;;;9.20;8.27;;;;;;;;;;2065047;28;20213;-61
2021/11/22 03:53:15;;;;;;;9.97;8.80;;;;;;;;;;2064141;28;20174;-61
2021/11/22 03:54:16;;;;;;;12.47;9.03;;;;;;;;;;2065483;28;20177;-63
2021/11/22 03:55:16;;;;;;;11.07;8.00;;;;;;;;;;2065365;28;20784;-65
2021/11/22 03:56:17;;;;;;;8.83;7.70;;;;;;;;;;2066503;28;20177;-65
2021/11/22 03:57:17;;;;;;;12.20;8.33;;;;;;;;;;2064989;28;20178;-64
2021/11/22 03:58:17;;;;;;;10.00;8.30;;;;;;;;;;2063029;28;20848;-61
2021/11/22 03:59:18;;;;;;;9.70;7.87;;;;;;;;;;2063793;28;20178;-64
2021/11/22 04:00:19;;;;;;;14.73;8.83;;;;;;;;;;2066627;28;20201;-62
2021/11/22 04:01:19;;;;;;;9.13;8.23;;;;;;;;;;2066445;28;20188;-61
2021/11/22 04:02:19;;;;;;;9.47;8.30;;;;;;;;;;2062256;28;20189;-63
2021/11/22 04:03:20;;;;;;;9.97;8.13;;;;;;;;;;2059208;28;20189;-64
2021/11/22 04:04:20;;;;;;;9.57;8.67;;;;;;;;;;2065737;28;20617;-64
2021/11/22 04:05:21;;;;;;;11.90;8.40;;;;;;;;;;2060509;28;20661;-62
2021/11/22 04:06:21;;;;;;;9.63;8.33;;;;;;;;;;2063324;28;20178;-64
2021/11/22 04:07:22;;;;;;;10.30;8.30;;;;;;;;;;2065434;28;20649;-65
2021/11/22 04:08:22;;;;;;;9.90;8.97;;;;;;;;;;2065241;28;20232;-62
2021/11/22 04:09:22;;;;;;;10.87;9.33;;;;;;;;;;2065298;28;20267;-64
2021/11/22 04:10:23;;;;;;;10.27;7.83;;;;;;;;;;2065103;28;20215;-63
2021/11/22 04:11:23;;;;;;;10.20;9.20;;;;;;;;;;2059802;28;20181;-61
2021/11/22 04:12:24;;;;;;;10.63;7.97;;;;;;;;;;2063540;28;20185;-65
2021/11/22 04:13:24;;;;;;;8.80;7.90;;;;;;;;;;2065149;28;20154;-66
2021/11/22 04:14:24;;;;;;;10.83;8.70;;;;;;;;;;2061365;28;20257;-66
2021/11/22 04:15:25;;;;;;;9.13;8.20;;;;;;;;;;2066616;28;20185;-66
2021/11/22 04:16:25;;;;;;;9.23;7.50;;;;;;;;;;2072716;28;20660;-66
2021/11/22 04:17:25;;;;;;;8.70;7.83;;;;;;;;;;2065449;28;20186;-66
2021/11/22 04:18:26;;;;;;;9.67;8.50;;;;;;;;;;2065221;28;20174;-66
2021/11/22 04:19:26;;;;;;;9.97;8.97;;;;;;;;;;2065666;28;20173;-66
2021/11/22 04:20:26;;;;;;;9.67;8.70;;;;;;;;;;2064833;28;20210;-66
2021/11/22 04:21:27;;;;;;;11.37;9.43;;;;;;;;;;2065917;28;20253;-66
2021/11/22 04:22:27;;;;;;;10.17;8.93;;;;;;;;;;2065725;28;20556;-66
2021/11/22 04:23:28;;;;;;;12.03;9.80;;;;;;;;;;2065477;28;21433;-66
2021/11/22 04:24:28;;;;;;;9.77;8.70;;;;;;;;;;2065823;28;20184;-66
2021/11/22 04:25:29;;;;;;;11.43;8.97;;;;;;;;;;2062077;28;20612;-66
2021/11/22 04:26:29;;;;;;;10.63;8.60;;;;;;;;;;2065606;28;20559;-65
2021/11/22 04:27:29;;;;;;;12.10;9.27;;;;;;;;;;2065289;28;20169;-66
2021/11/22 04:28:30;;;;;;;11.47;9.43;;;;;;;;;;2070472;28;20181;-66
2021/11/22 04:29:31;;;;;;;9.80;8.73;;;;;;;;;;2073208;28;20169;-66
2021/11/22 04:30:31;;;;;;;9.60;8.07;;;;;;;;;;2064290;28;20261;-64
2021/11/22 04:31:33;;;;;;;11.10;9.90;;;;;;;;;;2062219;28;20575;-64
2021/11/22 04:32:33;;;;;;;9.40;8.43;;;;;;;;;;2065240;28;20280;-63
2021/11/22 04:33:36;;;;;;;10.93;9.33;;;;;;;;;;2066016;28;20224;-64
2021/11/22 04:34:38;;;;;;;12.23;9.47;;;;;;;;;;2063929;28;20188;-64
2021/11/22 04:35:38;;;;;;;10.03;9.13;;;;;;;;;;2065480;28;20256;-65
2021/11/22 04:36:38;;;;;;;13.03;10.20;;;;;;;;;;2065528;28;20264;-65
2021/11/22 04:37:39;;;;;;;9.37;8.20;;;;;;;;;;2064514;28;20208;-65
2021/11/22 04:38:40;;;;;;;12.40;8.77;;;;;;;;;;2056147;28;20194;-65
2021/11/22 04:39:41;;;;;;;9.37;8.50;;;;;;;;;;2064870;28;20170;-65
2021/11/22 04:40:41;;;;;;;10.30;8.83;;;;;;;;;;2072778;28;20180;-65
2021/11/22 04:41:42;;;;;;;14.87;9.43;;;;;;;;;;2071299;28;20263;-65
2021/11/22 04:42:47;;;;;;;10.03;8.60;;;;;;;;;;2063778;28;20848;-65
2021/11/22 04:43:47;;;;;;;11.63;8.80;;;;;;;;;;2061589;28;20181;-64
2021/11/22 04:44:48;;;;;;;11.33;8.93;;;;;;;;;;2062925;28;20169;-65
2021/11/22 04:45:48;;;;;;;10.80;8.87;;;;;;;;;;2064040;28;20886;-65
2021/11/22 04:46:48;;;;;;;10.60;9.03;;;;;;;;;;2064532;28;20181;-65
2021/11/22 04:47:50;;;;;;;11.43;8.80;;;;;;;;;;2064374;28;20240;-65
2021/11/22 04:48:50;;;;;;;12.40;8.50;;;;;;;;;;2064608;28;20549;-65
2021/11/22 04:49:51;;;;;;;11.37;9.47;;;;;;;;;;2065060;28;20180;-65
2021/11/22 04:50:51;;;;;;;14.47;9.97;;;;;;;;;;2064529;28;20174;-64
2021/11/22 04:51:51;;;;;;;9.57;8.63;;;;;;;;;;2064429;28;20182;-65
2021/11/22 04:52:52;;;;;;;11.03;9.00;;;;;;;;;;2065490;28;20239;-64
2021/11/22 04:53:52;;;;;;;9.87;8.40;;;;;;;;;;2065096;28;20173;-66
2021/11/22 04:54:52;;;;;;;9.80;8.83;;;;;;;;;;2060928;28;20237;-66
2021/11/22 04:55:53;;;;;;;11.70;9.23;;;;;;;;;;2063446;28;20169;-66
2021/11/22 04:56:54;;;;;;;11.03;9.33;;;;;;;;;;2064613;28;20649;-65
2021/11/22 04:57:55;;;;;;;10.53;9.00;;;;;;;;;;2065363;28;20678;-65
2021/11/22 04:58:55;;;;;;;12.93;8.73;;;;;;;;;;2060274;28;20185;-65
2021/11/22 04:59:55;;;;;;;9.03;8.10;;;;;;;;;;2063456;28;20177;-66
2021/11/22 05:00:56;;;;;;;10.60;9.50;;;;;;;;;;2064732;28;20173;-65
2021/11/22 05:01:57;;;;;;;9.50;8.10;;;;;;;;;;2063544;28;20272;-65
2021/11/22 05:02:57;;;;;;;9.30;8.30;;;;;;;;;;2059382;28;20768;-65
2021/11/22 05:03:58;;;;;;;9.87;8.43;;;;;;;;;;2064225;28;20336;-65
2021/11/22 05:04:58;;;;;;;9.70;8.87;;;;;;;;;;2065060;28;20873;-66
2021/11/22 05:05:59;;;;;;;11.53;9.43;;;;;;;;;;2059272;28;20265;-65
2021/11/22 05:06:59;;;;;;;12.53;9.70;;;;;;;;;;2063778;28;20197;-65
2021/11/22 05:08:05;;;;;;;10.20;9.13;;;;;;;;;;2063373;28;20264;-65
2021/11/22 05:09:05;;;;;;;9.63;8.63;;;;;;;;;;2064014;28;20193;-65
2021/11/22 05:10:06;;;;;;;11.23;10.00;;;;;;;;;;2057851;28;20189;-66
2021/11/22 05:11:06;;;;;;;12.33;9.33;;;;;;;;;;2064707;28;20487;-65
2021/11/22 05:12:07;;;;;;;10.63;9.27;;;;;;;;;;2064330;28;20166;-64
2021/11/22 05:13:08;;;;;;;12.47;9.93;;;;;;;;;;2064687;28;20225;-63
2021/11/22 05:14:10;;;;;;;10.43;9.43;;;;;;;;;;2063316;28;20681;-66
2021/11/22 05:15:10;;;;;;;19.67;11.63;;;;;;;;;;2055740;28;20204;-66
2021/11/22 05:16:10;;;;;;;18.43;11.20;;;;;;;;;;2064729;28;20285;-66
2021/11/22 05:17:11;;;;;;;13.50;10.20;;;;;;;;;;2064670;28;20173;-66
2021/11/22 05:18:11;;;;;;;17.13;11.07;;;;;;;;;;2064690;28;20173;-64
2021/11/22 05:19:12;;;;;;;17.03;11.33;;;;;;;;;;2063865;28;20169;-66
2021/11/22 05:20:13;;;;;;;12.90;11.33;;;;;;;;;;2065275;28;20209;-66
2021/11/22 05:21:13;;;;;;;12.83;10.57;;;;;;;;;;2063949;28;20561;-66
2021/11/22 05:22:18;;;;;;;13.13;9.70;;;;;;;;;;2057549;28;20198;-65
2021/11/22 05:23:19;;;;;;;11.20;9.00;;;;;;;;;;2061910;28;20589;-65
2021/11/22 05:24:19;;;;;;;9.73;8.80;;;;;;;;;;2064483;28;20220;-65
2021/11/22 05:25:20;;;;;;;16.13;8.87;;;;;;;;;;2064680;28;20173;-65
2021/11/22 05:26:20;;;;;;;10.53;9.10;;;;;;;;;;2065020;28;20210;-64
2021/11/22 05:27:22;;;;;;;10.07;8.63;;;;;;;;;;2063807;28;20716;-65
2021/11/22 05:28:22;;;;;;;12.57;7.97;;;;;;;;;;2063635;28;20180;-65
2021/11/22 05:29:23;;;;;;;10.90;8.80;;;;;;;;;;2063169;28;20806;-65
2021/11/22 05:30:26;;;;;;;9.37;8.20;;;;;;;;;;2064853;28;20190;-65
2021/11/22 05:31:26;;;;;;;9.53;8.57;;;;;;;;;;2061658;28;20182;-65
2021/11/22 05:32:26;;;;;;;9.00;7.70;;;;;;;;;;2064560;28;20170;-64
2021/11/22 05:33:27;;;;;;;9.80;8.77;;;;;;;;;;2065342;28;20641;-64
2021/11/22 05:34:27;;;;;;;11.73;9.23;;;;;;;;;;2064581;28;20200;-66
2021/11/22 05:35:28;;;;;;;10.53;8.83;;;;;;;;;;2065130;28;20177;-65
2021/11/22 05:36:28;;;;;;;10.93;8.97;;;;;;;;;;2064503;28;20173;-65
2021/11/22 05:37:30;;;;;;;13.33;9.47;;;;;;;;;;2061351;28;20178;-65
2021/11/22 05:38:31;;;;;;;12.30;9.60;;;;;;;;;;2063973;28;20313;-65
2021/11/22 05:39:31;;;;;;;11.77;9.37;;;;;;;;;;2064680;28;20169;-65
2021/11/22 05:40:31;;;;;;;11.27;9.70;;;;;;;;;;2064156;28;20185;-63
2021/11/22 05:41:32;;;;;;;12.67;10.73;;;;;;;;;;2064769;28;20168;-65
2021/11/22 05:42:32;;;;;;;15.80;12.33;;;;;;;;;;2063431;28;20220;-65
2021/11/22 05:43:35;;;;;;;15.73;11.43;;;;;;;;;;2064009;28;20240;-65
2021/11/22 05:44:35;;;;;;;15.70;11.70;;;;;;;;;;2067747;28;20645;-62
2021/11/22 05:45:36;;;;;;;21.33;11.90;;;;;;;;;;2071634;28;20219;-65
2021/11/22 05:46:36;;;;;;;16.43;12.37;;;;;;;;;;2065208;28;20185;-64
2021/11/22 05:47:37;;;;;;;15.73;12.37;;;;;;;;;;2064429;28;20634;-63
2021/11/22 05:48:37;;;;;;;13.73;11.17;;;;;;;;;;2063703;28;20178;-64
2021/11/22 05:49:38;;;;;;;13.50;10.03;;;;;;;;;;2062264;28;20656;-64
2021/11/22 05:50:39;;;;;;;13.10;10.50;;;;;;;;;;2064018;28;20185;-65
2021/11/22 05:51:39;;;;;;;16.37;11.27;;;;;;;;;;2064211;28;20190;-64
2021/11/22 05:52:43;;;;;;;11.73;10.37;;;;;;;;;;2060982;28;20283;-65
2021/11/22 05:53:46;;;;;;;15.93;11.10;;;;;;;;;;2060830;28;20624;-65
2021/11/22 05:54:51;;;;;;;14.13;10.33;;;;;;;;;;2061616;28;20170;-66
2021/11/22 05:55:52;;;;;;;11.40;10.30;;;;;;;;;;2059143;28;20189;-65
2021/11/22 05:56:52;;;;;;;15.50;11.23;;;;;;;;;;2062417;28;20173;-65
2021/11/22 05:57:52;;;;;;;14.67;9.70;;;;;;;;;;2063792;28;20608;-65
2021/11/22 05:58:53;;;;;;;12.37;10.17;;;;;;;;;;2063605;28;20264;-65
2021/11/22 05:59:53;;;;;;;11.30;9.37;;;;;;;;;;2064512;28;20180;-65
2021/11/22 06:00:53;;;;;;;9.70;8.80;;;;;;;;;;2064160;28;20173;-64
2021/11/22 06:01:54;;;;;;;10.20;8.47;;;;;;;;;;2063599;28;20213;-66
2021/11/22 06:02:54;;;;;;;9.33;8.47;;;;;;;;;;2055657;28;20186;-66